createdAt,value
2022-12-22T00:01:57.161Z,7.85
2022-12-22T00:04:43.134Z,7.93
2022-12-22T00:07:30.557Z,7.85
2022-12-22T00:10:16.378Z,7.99
2022-12-22T00:13:02.441Z,7.87
2022-12-22T00:15:52.617Z,7.78
2022-12-22T00:18:39.185Z,7.99
2022-12-22T00:21:25.030Z,8.07
2022-12-22T00:24:12.129Z,8.16
2022-12-22T00:26:58.065Z,8.22
2022-12-22T00:29:45.913Z,8.11
2022-12-22T00:32:32.738Z,8.13
2022-12-22T00:35:18.820Z,8.19
2022-12-22T00:38:04.906Z,7.95
2022-12-22T00:40:52.413Z,8.03
2022-12-22T00:43:38.272Z,8.02
2022-12-22T00:46:24.069Z,8.10
2022-12-22T00:49:10.003Z,8.09
2022-12-22T00:51:56.034Z,7.95
2022-12-22T00:54:42.547Z,7.68
2022-12-22T00:57:37.215Z,7.86
2022-12-22T01:00:25.020Z,7.89
2022-12-22T01:03:11.092Z,7.93
2022-12-22T01:05:57.286Z,7.96
2022-12-22T01:08:43.240Z,7.92
2022-12-22T01:11:29.137Z,7.92
2022-12-22T01:14:16.239Z,7.73
2022-12-22T01:17:02.109Z,7.99
2022-12-22T01:19:48.297Z,8.08
2022-12-22T01:22:39.348Z,8.10
2022-12-22T01:25:31.773Z,8.14
2022-12-22T01:28:17.512Z,8.11
2022-12-22T01:31:05.057Z,8.14
2022-12-22T01:33:51.023Z,8.07
2022-12-22T01:36:36.963Z,8.00
2022-12-22T01:39:22.697Z,8.11
2022-12-22T01:42:08.723Z,8.17
2022-12-22T01:44:54.510Z,8.07
2022-12-22T01:47:59.657Z,8.09
2022-12-22T01:50:50.149Z,8.14
2022-12-22T01:53:41.435Z,8.10
2022-12-22T01:56:27.894Z,8.24
2022-12-22T01:59:18.080Z,8.09
2022-12-22T02:02:04.474Z,8.19
2022-12-22T02:05:06.396Z,8.24
2022-12-22T02:08:15.246Z,8.18
2022-12-22T02:11:31.981Z,8.40
2022-12-22T02:14:30.765Z,8.48
2022-12-22T02:17:29.989Z,8.55
2022-12-22T02:20:44.323Z,8.55
2022-12-22T02:23:37.810Z,8.50
2022-12-22T02:26:42.897Z,8.56
2022-12-22T02:29:31.127Z,8.66
2022-12-22T02:32:17.492Z,8.59
2022-12-22T02:35:03.467Z,8.58
2022-12-22T02:38:03.674Z,8.53
2022-12-22T02:41:00.797Z,8.56
2022-12-22T02:44:10.387Z,8.62
2022-12-22T02:47:03.528Z,8.68
2022-12-22T02:49:57.804Z,8.66
2022-12-22T02:52:50.344Z,8.66
2022-12-22T02:55:36.381Z,8.67
2022-12-22T02:58:22.519Z,8.65
2022-12-22T03:01:10.175Z,8.24
2022-12-22T03:03:56.194Z,8.44
2022-12-22T03:06:42.254Z,8.54
2022-12-22T03:09:28.120Z,8.58
2022-12-22T03:12:13.727Z,8.51
2022-12-22T03:14:59.648Z,8.54
2022-12-22T03:17:46.641Z,8.51
2022-12-22T03:20:32.283Z,8.42
2022-12-22T03:23:23.827Z,8.47
2022-12-22T03:25:53.202Z,8.47
2022-12-22T03:28:23.250Z,8.52
2022-12-22T03:30:57.923Z,8.47
2022-12-22T03:33:28.763Z,8.41
2022-12-22T03:35:57.135Z,8.48
2022-12-22T03:38:26.104Z,8.52
2022-12-22T03:40:54.771Z,8.49
2022-12-22T03:43:40.661Z,8.54
2022-12-22T03:46:30.573Z,8.41
2022-12-22T03:49:12.747Z,8.53
2022-12-22T03:51:44.616Z,8.42
2022-12-22T03:54:15.293Z,8.44
2022-12-22T03:56:44.247Z,8.53
2022-12-22T03:59:12.715Z,8.54
2022-12-22T04:01:44.082Z,8.53
2022-12-22T04:04:15.840Z,8.52
2022-12-22T04:06:44.619Z,8.54
2022-12-22T04:09:13.736Z,8.38
2022-12-22T04:12:08.207Z,8.61
2022-12-22T04:14:36.970Z,8.61
2022-12-22T04:17:06.146Z,8.62
2022-12-22T04:19:35.866Z,8.57
2022-12-22T04:22:04.278Z,8.42
2022-12-22T04:24:32.636Z,8.56
2022-12-22T04:27:01.008Z,8.62
2022-12-22T04:29:29.322Z,8.62
2022-12-22T04:31:57.640Z,8.44
2022-12-22T04:34:25.947Z,8.56
2022-12-22T04:37:00.492Z,8.65
2022-12-22T04:39:32.822Z,8.61
2022-12-22T04:42:01.057Z,8.57
2022-12-22T04:44:29.486Z,8.52
2022-12-22T04:46:57.746Z,8.51
2022-12-22T04:49:26.042Z,8.58
2022-12-22T04:51:55.733Z,8.58
2022-12-22T04:54:24.014Z,8.58
2022-12-22T04:56:52.654Z,8.47
2022-12-22T04:59:21.027Z,8.55
2022-12-22T05:01:49.477Z,8.54
2022-12-22T05:04:23.477Z,8.27
2022-12-22T05:06:52.319Z,8.20
2022-12-22T05:09:22.085Z,8.35
2022-12-22T05:11:50.378Z,8.16
2022-12-22T05:14:18.755Z,8.33
2022-12-22T05:16:47.187Z,8.34
2022-12-22T05:19:15.580Z,8.00
2022-12-22T05:21:43.884Z,8.19
2022-12-22T05:24:12.124Z,8.19
2022-12-22T05:26:41.821Z,8.27
2022-12-22T05:29:10.138Z,8.18
2022-12-22T05:31:41.844Z,8.14
2022-12-22T05:34:15.185Z,8.21
2022-12-22T05:36:43.459Z,7.97
2022-12-22T05:39:11.700Z,8.11
2022-12-22T05:41:41.334Z,7.82
2022-12-22T05:44:09.722Z,7.49
2022-12-22T05:46:38.231Z,7.65
2022-12-22T05:49:06.574Z,7.49
2022-12-22T05:51:34.848Z,7.30
2022-12-22T05:54:03.141Z,7.36
2022-12-22T05:56:31.404Z,7.43
2022-12-22T05:59:01.178Z,7.24
2022-12-22T06:01:29.631Z,7.02
2022-12-22T06:04:00.576Z,7.03
2022-12-22T06:06:29.501Z,7.21
2022-12-22T06:08:57.834Z,7.28
2022-12-22T06:11:26.155Z,7.14
2022-12-22T06:13:54.439Z,7.30
2022-12-22T06:16:25.047Z,7.33
2022-12-22T06:18:53.414Z,7.44
2022-12-22T06:21:21.743Z,7.22
2022-12-22T06:23:50.021Z,7.49
2022-12-22T06:26:18.299Z,7.35
2022-12-22T06:28:46.628Z,7.40
2022-12-22T06:31:15.019Z,7.45
2022-12-22T06:33:45.475Z,7.43
2022-12-22T06:36:13.875Z,7.52
2022-12-22T06:38:42.096Z,7.48
2022-12-22T06:41:10.604Z,7.40
2022-12-22T06:43:37.994Z,7.29
2022-12-22T06:46:06.625Z,7.35
2022-12-22T06:48:34.927Z,7.26
2022-12-22T06:51:04.763Z,7.45
2022-12-22T06:53:33.107Z,7.44
2022-12-22T06:56:01.403Z,7.29
2022-12-22T06:58:29.747Z,7.39
2022-12-22T07:00:58.237Z,7.37
2022-12-22T07:03:26.719Z,7.29
2022-12-22T07:05:55.305Z,7.33
2022-12-22T07:08:25.024Z,7.22
2022-12-22T07:10:59.220Z,7.21
2022-12-22T07:13:30.061Z,7.01
2022-12-22T07:16:01.047Z,7.12
2022-12-22T07:18:32.516Z,7.06
2022-12-22T07:21:02.913Z,6.80
2022-12-22T07:23:33.026Z,6.61
2022-12-22T07:26:02.245Z,6.33
2022-12-22T07:28:33.235Z,6.59
2022-12-22T07:31:01.880Z,6.57
2022-12-22T07:33:30.412Z,6.56
2022-12-22T07:36:09.018Z,6.54
2022-12-22T07:38:42.361Z,6.24
2022-12-22T07:41:26.220Z,6.50
2022-12-22T07:43:55.350Z,6.42
2022-12-22T07:46:25.504Z,6.17
2022-12-22T07:49:11.232Z,6.41
2022-12-22T07:51:42.285Z,6.28
2022-12-22T07:54:15.260Z,6.28
2022-12-22T07:56:44.831Z,6.21
2022-12-22T07:59:13.794Z,6.38
2022-12-22T08:01:42.504Z,6.44
2022-12-22T08:04:11.543Z,6.37
2022-12-22T08:06:40.446Z,6.38
2022-12-22T08:09:14.319Z,6.23
2022-12-22T08:11:42.678Z,6.28
2022-12-22T08:14:11.122Z,6.34
2022-12-22T08:16:39.402Z,6.16
2022-12-22T08:19:07.793Z,6.31
2022-12-22T08:21:36.278Z,6.29
2022-12-22T08:24:04.835Z,6.15
2022-12-22T08:26:39.353Z,6.26
2022-12-22T08:29:13.026Z,6.38
2022-12-22T08:31:42.623Z,6.34
2022-12-22T08:34:15.101Z,6.37
2022-12-22T08:36:47.947Z,6.32
2022-12-22T08:39:17.057Z,6.35
2022-12-22T08:41:52.896Z,6.32
2022-12-22T08:44:24.180Z,6.10
2022-12-22T08:46:53.879Z,5.97
2022-12-22T08:49:22.711Z,5.64
2022-12-22T08:51:51.808Z,5.68
2022-12-22T08:54:20.891Z,5.89
2022-12-22T08:56:51.368Z,5.97
2022-12-22T08:59:19.859Z,6.04
2022-12-22T09:01:50.873Z,5.87
2022-12-22T09:04:22.341Z,5.73
2022-12-22T09:06:53.514Z,5.52
2022-12-22T09:09:22.107Z,5.74
2022-12-22T09:11:51.937Z,5.68
2022-12-22T09:14:20.434Z,5.59
2022-12-22T09:16:48.883Z,5.68
2022-12-22T09:19:17.377Z,5.49
2022-12-22T09:21:46.223Z,5.71
2022-12-22T09:24:15.002Z,5.70
2022-12-22T09:26:43.800Z,5.57
2022-12-22T09:29:15.362Z,5.64
2022-12-22T09:31:44.141Z,5.65
2022-12-22T09:34:17.488Z,5.77
2022-12-22T09:36:47.749Z,5.89
2022-12-22T09:39:17.059Z,5.87
2022-12-22T09:41:49.591Z,5.69
2022-12-22T09:44:26.387Z,5.75
2022-12-22T09:46:57.482Z,5.80
2022-12-22T09:49:26.592Z,5.43
2022-12-22T09:52:01.109Z,5.70
2022-12-22T09:54:31.089Z,5.70
2022-12-22T09:56:59.898Z,5.38
2022-12-22T09:59:31.273Z,5.62
2022-12-22T10:02:16.791Z,5.68
2022-12-22T10:05:11.933Z,5.76
2022-12-22T10:07:42.794Z,5.82
2022-12-22T10:10:25.404Z,6.02
2022-12-22T10:12:55.548Z,6.27
2022-12-22T10:15:26.203Z,6.39
2022-12-22T10:18:08.977Z,6.30
2022-12-22T10:20:39.873Z,6.39
2022-12-22T10:23:18.930Z,6.57
2022-12-22T10:29:01.966Z,6.24
2022-12-22T10:31:34.082Z,6.54
2022-12-22T10:34:14.149Z,6.49
2022-12-22T10:36:47.835Z,6.29
2022-12-22T10:39:23.443Z,6.44
2022-12-22T10:41:56.297Z,6.22
2022-12-22T10:44:28.782Z,6.23
2022-12-22T10:47:01.357Z,6.36
2022-12-22T10:52:14.184Z,6.36
2022-12-22T10:54:44.679Z,6.49
2022-12-22T10:57:30.104Z,6.29
2022-12-22T11:00:00.638Z,6.51
2022-12-22T11:02:38.047Z,6.66
2022-12-22T11:05:09.884Z,6.80
2022-12-22T11:07:40.205Z,6.93
2022-12-22T11:10:25.838Z,6.65
2022-12-22T11:13:21.340Z,6.56
2022-12-22T11:16:00.154Z,6.77
2022-12-22T11:18:48.747Z,6.72
2022-12-22T11:21:24.530Z,6.61
2022-12-22T11:24:02.836Z,6.79
2022-12-22T11:26:43.206Z,6.56
2022-12-22T11:29:34.327Z,6.53
2022-12-22T11:32:25.562Z,6.31
2022-12-22T11:35:03.208Z,5.87
2022-12-22T11:37:43.400Z,6.15
2022-12-22T11:40:28.897Z,5.92
2022-12-22T11:43:21.724Z,6.00
2022-12-22T11:46:03.426Z,6.07
2022-12-22T11:49:29.023Z,6.11
2022-12-22T11:52:14.624Z,6.14
2022-12-22T11:55:01.078Z,5.89
2022-12-22T11:57:40.095Z,6.14
2022-12-22T12:00:11.608Z,6.21
2022-12-22T12:03:16.793Z,6.20
2022-12-22T12:06:14.537Z,6.22
2022-12-22T12:09:03.241Z,6.49
2022-12-22T12:11:40.332Z,6.63
2022-12-22T12:14:23.188Z,6.55
2022-12-22T12:16:59.863Z,6.73
2022-12-22T12:20:04.149Z,6.65
2022-12-22T12:22:55.322Z,6.75
2022-12-22T12:25:32.920Z,6.77
2022-12-22T12:28:25.137Z,6.86
2022-12-22T12:30:58.583Z,6.76
2022-12-22T12:33:40.034Z,6.64
2022-12-22T12:36:15.645Z,6.74
2022-12-22T12:39:11.921Z,6.77
2022-12-22T12:41:55.299Z,6.85
2022-12-22T12:44:29.170Z,6.89
2022-12-22T12:47:24.763Z,6.86
2022-12-22T12:50:30.723Z,6.86
2022-12-22T12:53:17.579Z,6.84
2022-12-22T12:56:02.533Z,6.56
2022-12-22T12:58:57.957Z,6.24
2022-12-22T13:02:01.074Z,6.56
2022-12-22T13:05:03.068Z,6.67
2022-12-22T13:08:24.151Z,6.59
2022-12-22T13:12:10.513Z,6.62
2022-12-22T13:15:01.379Z,6.58
2022-12-22T13:17:49.020Z,7.00
2022-12-22T13:20:28.879Z,6.96
2022-12-22T13:23:00.277Z,7.00
2022-12-22T13:25:42.626Z,7.29
2022-12-22T13:28:17.202Z,7.36
2022-12-22T13:30:50.371Z,7.30
2022-12-22T13:33:25.035Z,7.53
2022-12-22T13:35:58.863Z,7.45
2022-12-22T13:38:30.488Z,7.47
2022-12-22T13:41:00.935Z,7.57
2022-12-22T13:43:31.777Z,7.76
2022-12-22T13:46:04.281Z,7.75
2022-12-22T13:48:44.799Z,7.78
2022-12-22T13:51:21.037Z,7.77
2022-12-22T13:54:10.305Z,7.62
2022-12-22T13:56:45.508Z,7.66
2022-12-22T13:59:28.980Z,7.73
2022-12-22T14:02:03.076Z,7.53
2022-12-22T14:04:32.086Z,7.61
2022-12-22T14:07:12.724Z,7.59
2022-12-22T14:09:45.874Z,7.36
2022-12-22T14:12:18.544Z,7.63
2022-12-22T14:14:49.714Z,7.54
2022-12-22T14:17:26.676Z,7.63
2022-12-22T14:19:58.337Z,7.78
2022-12-22T14:22:30.486Z,7.78
2022-12-22T14:25:04.991Z,7.79
2022-12-22T14:27:45.087Z,7.85
2022-12-22T14:30:19.516Z,7.76
2022-12-22T14:32:55.221Z,7.79
2022-12-22T14:35:31.682Z,7.69
2022-12-22T14:38:21.513Z,7.79
2022-12-22T14:40:56.440Z,7.73
2022-12-22T14:43:31.391Z,7.61
2022-12-22T14:46:07.814Z,7.62
2022-12-22T14:48:41.511Z,7.73
2022-12-22T14:51:10.150Z,7.66
2022-12-22T14:53:46.464Z,7.77
2022-12-22T14:56:17.822Z,7.74
2022-12-22T14:58:48.339Z,7.56
2022-12-22T15:01:21.962Z,7.73
2022-12-22T15:04:06.864Z,7.64
2022-12-22T15:06:40.016Z,7.42
2022-12-22T15:12:18.859Z,7.52
2022-12-22T15:14:49.125Z,7.46
2022-12-22T15:17:23.812Z,7.29
2022-12-22T15:19:58.822Z,7.46
2022-12-22T15:22:27.240Z,7.54
2022-12-22T15:24:55.606Z,7.46
2022-12-22T15:27:23.958Z,7.57
2022-12-22T15:29:52.239Z,7.50
2022-12-22T15:32:20.628Z,7.37
2022-12-22T15:34:49.001Z,7.38
2022-12-22T15:37:18.826Z,7.38
2022-12-22T15:39:47.479Z,7.40
2022-12-22T15:42:15.778Z,7.36
2022-12-22T15:44:44.142Z,7.36
2022-12-22T15:47:13.689Z,7.40
2022-12-22T15:49:42.139Z,7.35
2022-12-22T15:52:14.682Z,7.46
2022-12-22T15:54:44.715Z,7.44
2022-12-22T15:57:15.389Z,7.43
2022-12-22T15:59:43.844Z,7.24
2022-12-22T16:02:13.859Z,7.28
2022-12-22T16:04:42.621Z,7.39
2022-12-22T16:07:13.288Z,7.43
2022-12-22T16:09:47.067Z,7.50
2022-12-22T16:12:18.624Z,7.45
2022-12-22T16:14:51.547Z,7.47
2022-12-22T16:17:22.839Z,7.40
2022-12-22T16:19:51.453Z,7.48
2022-12-22T16:22:30.658Z,7.44
2022-12-22T16:25:03.025Z,7.61
2022-12-22T16:27:32.200Z,7.55
2022-12-22T16:30:00.551Z,7.36
2022-12-22T16:32:32.028Z,7.65
2022-12-22T16:35:15.180Z,7.60
2022-12-22T16:37:43.702Z,7.74
2022-12-22T16:40:14.220Z,7.73
2022-12-22T16:45:37.989Z,7.47
2022-12-22T16:48:13.049Z,7.40
2022-12-22T16:50:47.922Z,7.59
2022-12-22T16:53:16.730Z,7.69
2022-12-22T16:55:46.580Z,7.74
2022-12-22T16:58:14.877Z,7.71
2022-12-22T17:00:45.840Z,7.54
2022-12-22T17:03:17.363Z,7.61
2022-12-22T17:05:49.644Z,7.69
2022-12-22T17:08:23.650Z,7.75
2022-12-22T17:10:55.251Z,7.74
2022-12-22T17:13:24.076Z,7.56
2022-12-22T17:15:52.401Z,7.48
2022-12-22T17:18:23.147Z,7.65
2022-12-22T17:20:53.875Z,7.69
2022-12-22T17:23:32.768Z,7.67
2022-12-22T17:26:06.715Z,7.77
2022-12-22T17:28:36.684Z,7.50
2022-12-22T17:31:05.310Z,7.58
2022-12-22T17:33:33.639Z,7.60
2022-12-22T17:36:02.669Z,7.60
2022-12-22T17:38:31.068Z,7.67
2022-12-22T17:41:00.975Z,7.73
2022-12-22T17:43:30.690Z,7.91
2022-12-22T17:45:58.939Z,7.76
2022-12-22T17:48:27.234Z,7.86
2022-12-22T17:50:55.723Z,7.90
2022-12-22T17:53:24.096Z,7.99
2022-12-22T17:56:09.322Z,8.00
2022-12-22T17:58:39.417Z,8.17
2022-12-22T18:01:07.979Z,8.05
2022-12-22T18:03:36.405Z,8.00
2022-12-22T18:06:05.580Z,8.03
2022-12-22T18:08:33.944Z,8.05
2022-12-22T18:11:03.279Z,7.92
2022-12-22T18:13:31.709Z,8.13
2022-12-22T18:16:01.434Z,8.16
2022-12-22T18:18:29.936Z,8.22
2022-12-22T18:21:06.451Z,8.08
2022-12-22T18:23:37.567Z,8.17
2022-12-22T18:26:08.378Z,8.24
2022-12-22T18:28:37.379Z,7.97
2022-12-22T18:31:07.511Z,8.09
2022-12-22T18:33:35.976Z,7.85
2022-12-22T18:36:04.458Z,7.95
2022-12-22T18:38:36.172Z,8.00
2022-12-22T18:41:04.783Z,8.04
2022-12-22T18:43:33.095Z,8.23
2022-12-22T18:46:01.568Z,8.15
2022-12-22T18:48:31.244Z,8.07
2022-12-22T18:50:59.685Z,8.24
2022-12-22T18:53:30.688Z,8.22
2022-12-22T18:55:59.993Z,8.30
2022-12-22T18:58:29.332Z,8.32
2022-12-22T19:00:58.236Z,8.22
2022-12-22T19:03:30.889Z,8.08
2022-12-22T19:05:59.893Z,8.00
2022-12-22T19:08:31.235Z,8.03
2022-12-22T19:11:04.672Z,7.88
2022-12-22T19:13:36.224Z,8.13
2022-12-22T19:16:05.635Z,7.67
2022-12-22T19:18:35.404Z,8.08
2022-12-22T19:21:03.772Z,7.97
2022-12-22T19:23:32.051Z,7.90
2022-12-22T19:26:08.460Z,7.68
2022-12-22T19:28:41.363Z,7.84
2022-12-22T19:31:17.168Z,7.79
2022-12-22T19:33:47.166Z,7.88
2022-12-22T19:36:19.756Z,7.80
2022-12-22T19:38:50.850Z,7.90
2022-12-22T19:41:33.792Z,7.80
2022-12-22T19:44:02.450Z,7.74
2022-12-22T19:46:35.065Z,7.83
2022-12-22T19:49:04.819Z,7.90
2022-12-22T19:51:33.100Z,7.87
2022-12-22T19:54:01.444Z,8.08
2022-12-22T19:56:30.926Z,8.16
2022-12-22T19:59:01.895Z,8.08
2022-12-22T20:01:30.468Z,7.98
2022-12-22T20:03:58.939Z,8.02
2022-12-22T20:06:28.589Z,8.00
2022-12-22T20:09:01.578Z,7.90
2022-12-22T20:11:30.263Z,7.94
2022-12-22T20:13:58.636Z,8.01
2022-12-22T20:16:27.004Z,7.92
2022-12-22T20:18:55.314Z,7.93
2022-12-22T20:21:30.517Z,7.94
2022-12-22T20:24:01.477Z,7.98
2022-12-22T20:26:29.916Z,7.89
2022-12-22T20:28:58.326Z,8.03
2022-12-22T20:31:27.522Z,7.77
2022-12-22T20:33:55.917Z,8.10
2022-12-22T20:36:30.034Z,7.86
2022-12-22T20:39:01.257Z,7.94
2022-12-22T20:41:29.665Z,7.98
2022-12-22T20:43:57.932Z,7.95
2022-12-22T20:46:29.940Z,7.95
2022-12-22T20:49:01.624Z,7.94
2022-12-22T20:51:34.323Z,7.92
2022-12-22T20:54:02.843Z,8.00
2022-12-22T20:56:34.027Z,8.00
2022-12-22T20:59:13.065Z,7.98
2022-12-22T21:01:41.567Z,7.94
2022-12-22T21:04:10.123Z,8.17
2022-12-22T21:06:43.901Z,8.02
2022-12-22T21:09:13.566Z,8.11
2022-12-22T21:11:41.834Z,7.99
2022-12-22T21:14:11.663Z,8.05
2022-12-22T21:16:41.305Z,8.00
2022-12-22T21:19:16.202Z,7.86
2022-12-22T21:21:46.011Z,8.21
2022-12-22T21:24:14.524Z,8.29
2022-12-22T21:26:48.122Z,8.14
2022-12-22T21:29:22.386Z,8.14
2022-12-22T21:31:50.740Z,8.08
2022-12-22T21:34:20.531Z,8.11
2022-12-22T21:36:57.248Z,8.09
2022-12-22T21:39:31.432Z,8.09
2022-12-22T21:42:04.622Z,8.13
2022-12-22T21:44:36.413Z,8.06
2022-12-22T21:47:05.347Z,8.10
2022-12-22T21:49:34.894Z,8.16
2022-12-22T21:52:04.787Z,8.22
2022-12-22T21:54:33.101Z,8.04
2022-12-22T21:57:01.469Z,7.98
2022-12-22T21:59:29.932Z,7.94
2022-12-22T22:01:58.438Z,8.11
2022-12-22T22:04:27.249Z,8.04
2022-12-22T22:06:55.793Z,7.97
2022-12-22T22:09:25.504Z,7.99
2022-12-22T22:12:11.244Z,7.98
2022-12-22T22:14:39.824Z,8.09
2022-12-22T22:17:08.103Z,8.11
2022-12-22T22:19:36.650Z,8.07
2022-12-22T22:22:05.018Z,8.07
2022-12-22T22:24:34.837Z,8.14
2022-12-22T22:27:03.217Z,8.06
2022-12-22T22:29:31.540Z,8.03
2022-12-22T22:31:59.883Z,8.08
2022-12-22T22:34:28.161Z,8.03
2022-12-22T22:36:56.641Z,7.93
2022-12-22T22:39:25.617Z,7.89
2022-12-22T22:41:55.315Z,7.82
2022-12-22T22:44:23.855Z,7.87
2022-12-22T22:46:52.217Z,7.98
2022-12-22T22:49:26.192Z,7.87
2022-12-22T22:51:56.594Z,7.95
2022-12-22T22:54:25.161Z,8.01
2022-12-22T22:56:55.329Z,7.86
2022-12-22T22:59:26.007Z,7.86
2022-12-22T23:01:54.355Z,7.96
2022-12-22T23:04:22.808Z,7.97
2022-12-22T23:06:51.224Z,7.88
2022-12-22T23:09:19.811Z,7.92
2022-12-22T23:11:48.075Z,7.91
2022-12-22T23:14:17.842Z,7.80
2022-12-22T23:16:46.293Z,7.92
2022-12-22T23:19:14.975Z,7.97
2022-12-22T23:21:44.907Z,7.85
2022-12-22T23:24:13.482Z,7.90
2022-12-22T23:26:41.849Z,7.88
2022-12-22T23:29:10.275Z,8.01
2022-12-22T23:31:39.956Z,7.97
2022-12-22T23:34:08.317Z,7.80
2022-12-22T23:36:36.663Z,7.87
2022-12-22T23:39:05.886Z,7.84
2022-12-22T23:41:34.592Z,7.84
2022-12-22T23:44:02.891Z,8.03
2022-12-22T23:46:31.237Z,7.93
2022-12-22T23:49:00.975Z,7.93
2022-12-22T23:51:30.729Z,8.03
2022-12-22T23:54:01.467Z,7.96
2022-12-22T23:56:30.559Z,7.73
2022-12-22T23:58:59.513Z,7.86
